sensor_id;sensor_type;location;lat;lon;timestamp;P1;durP1;ratioP1;P2;durP2;ratioP2
12780;SDS011;6454;43.304;24.344;2022-09-03T14:28:17;7.07;;;6.38;;
12780;SDS011;6454;43.304;24.344;2022-09-03T14:30:54;7.18;;;6.40;;
12780;SDS011;6454;43.304;24.344;2022-09-03T14:33:33;7.60;;;6.80;;
12780;SDS011;6454;43.304;24.344;2022-09-03T14:36:11;6.90;;;6.28;;
12780;SDS011;6454;43.304;24.344;2022-09-03T14:38:56;7.47;;;6.65;;
12780;SDS011;6454;43.304;24.344;2022-09-03T18:07:08;10.13;;;8.60;;
12780;SDS011;6454;43.304;24.344;2022-09-03T18:09:58;11.25;;;9.20;;
12780;SDS011;6454;43.304;24.344;2022-09-03T18:12:37;11.77;;;8.05;;
12780;SDS011;6454;43.304;24.344;2022-09-03T18:15:17;9.30;;;7.18;;
12780;SDS011;6454;43.304;24.344;2022-09-03T18:18:03;9.02;;;8.13;;
12780;SDS011;6454;43.304;24.344;2022-09-03T18:23:53;13.02;;;8.77;;
12780;SDS011;6454;43.304;24.344;2022-09-03T18:26:45;9.35;;;8.45;;
12780;SDS011;6454;43.304;24.344;2022-09-03T18:29:35;10.20;;;9.18;;
12780;SDS011;6454;43.304;24.344;2022-09-03T18:32:28;9.50;;;8.35;;
12780;SDS011;6454;43.304;24.344;2022-09-03T18:35:12;9.63;;;8.63;;
12780;SDS011;6454;43.304;24.344;2022-09-03T18:37:58;11.98;;;8.38;;
12780;SDS011;6454;43.304;24.344;2022-09-03T18:40:49;9.18;;;8.20;;
12780;SDS011;6454;43.304;24.344;2022-09-03T18:43:40;10.15;;;8.98;;
12780;SDS011;6454;43.304;24.344;2022-09-03T18:46:37;10.27;;;8.73;;
12780;SDS011;6454;43.304;24.344;2022-09-03T18:49:34;10.77;;;8.48;;
12780;SDS011;6454;43.304;24.344;2022-09-03T18:52:26;9.48;;;8.57;;
12780;SDS011;6454;43.304;24.344;2022-09-03T18:55:18;10.10;;;9.20;;
12780;SDS011;6454;43.304;24.344;2022-09-03T18:58:16;10.15;;;9.13;;
12780;SDS011;6454;43.304;24.344;2022-09-03T19:01:15;11.82;;;9.77;;
12780;SDS011;6454;43.304;24.344;2022-09-03T19:04:10;10.98;;;9.88;;
12780;SDS011;6454;43.304;24.344;2022-09-03T19:07:04;10.43;;;9.43;;
12780;SDS011;6454;43.304;24.344;2022-09-03T19:09:52;10.13;;;9.23;;
12780;SDS011;6454;43.304;24.344;2022-09-03T19:12:48;9.80;;;8.85;;
12780;SDS011;6454;43.304;24.344;2022-09-03T19:15:51;9.68;;;8.45;;
12780;SDS011;6454;43.304;24.344;2022-09-03T19:18:52;9.98;;;8.45;;
12780;SDS011;6454;43.304;24.344;2022-09-03T19:21:55;9.25;;;8.45;;
12780;SDS011;6454;43.304;24.344;2022-09-03T19:27:50;9.85;;;8.95;;
12780;SDS011;6454;43.304;24.344;2022-09-03T19:30:47;9.98;;;9.07;;
12780;SDS011;6454;43.304;24.344;2022-09-03T19:33:40;10.23;;;9.23;;
12780;SDS011;6454;43.304;24.344;2022-09-03T19:36:32;10.15;;;8.55;;
12780;SDS011;6454;43.304;24.344;2022-09-03T19:39:28;9.98;;;8.85;;
12780;SDS011;6454;43.304;24.344;2022-09-03T19:42:30;9.30;;;8.40;;
12780;SDS011;6454;43.304;24.344;2022-09-03T19:45:25;10.75;;;9.65;;
12780;SDS011;6454;43.304;24.344;2022-09-03T19:48:35;10.73;;;9.60;;
12780;SDS011;6454;43.304;24.344;2022-09-03T19:51:31;10.00;;;9.02;;
12780;SDS011;6454;43.304;24.344;2022-09-03T19:54:21;11.75;;;9.52;;
12780;SDS011;6454;43.304;24.344;2022-09-03T19:57:08;10.13;;;9.13;;
12780;SDS011;6454;43.304;24.344;2022-09-03T20:00:13;11.35;;;10.07;;
12780;SDS011;6454;43.304;24.344;2022-09-03T20:02:57;10.68;;;9.50;;
12780;SDS011;6454;43.304;24.344;2022-09-03T20:05:45;10.27;;;9.27;;
12780;SDS011;6454;43.304;24.344;2022-09-03T20:08:29;13.50;;;9.68;;
12780;SDS011;6454;43.304;24.344;2022-09-03T20:11:16;10.77;;;9.20;;
12780;SDS011;6454;43.304;24.344;2022-09-03T20:13:46;14.10;;;9.65;;
12780;SDS011;6454;43.304;24.344;2022-09-03T20:16:32;10.88;;;9.25;;
12780;SDS011;6454;43.304;24.344;2022-09-03T20:19:07;10.93;;;9.75;;
12780;SDS011;6454;43.304;24.344;2022-09-03T20:21:47;10.32;;;9.32;;
12780;SDS011;6454;43.304;24.344;2022-09-03T20:24:20;11.00;;;9.13;;
12780;SDS011;6454;43.304;24.344;2022-09-03T20:27:01;11.95;;;9.73;;
12780;SDS011;6454;43.304;24.344;2022-09-03T20:29:39;12.20;;;11.00;;
12780;SDS011;6454;43.304;24.344;2022-09-03T20:32:32;11.40;;;10.30;;
12780;SDS011;6454;43.304;24.344;2022-09-03T20:35:19;10.70;;;9.23;;
12780;SDS011;6454;43.304;24.344;2022-09-03T20:37:57;12.55;;;9.95;;
12780;SDS011;6454;43.304;24.344;2022-09-03T20:40:33;11.93;;;9.85;;
12780;SDS011;6454;43.304;24.344;2022-09-03T20:43:17;11.57;;;10.38;;
12780;SDS011;6454;43.304;24.344;2022-09-03T20:46:18;11.82;;;9.98;;
12780;SDS011;6454;43.304;24.344;2022-09-03T20:48:55;11.15;;;10.02;;
12780;SDS011;6454;43.304;24.344;2022-09-03T20:51:49;12.05;;;9.35;;
12780;SDS011;6454;43.304;24.344;2022-09-03T20:54:32;11.38;;;9.80;;
12780;SDS011;6454;43.304;24.344;2022-09-03T20:57:05;12.68;;;8.93;;
12780;SDS011;6454;43.304;24.344;2022-09-03T20:59:47;11.10;;;9.30;;
12780;SDS011;6454;43.304;24.344;2022-09-03T21:02:28;15.27;;;10.73;;
12780;SDS011;6454;43.304;24.344;2022-09-03T21:05:18;10.23;;;9.23;;
12780;SDS011;6454;43.304;24.344;2022-09-03T21:07:54;10.10;;;9.05;;
12780;SDS011;6454;43.304;24.344;2022-09-03T21:10:31;10.25;;;9.25;;
12780;SDS011;6454;43.304;24.344;2022-09-03T21:13:06;11.80;;;10.60;;
12780;SDS011;6454;43.304;24.344;2022-09-03T21:15:43;12.82;;;10.80;;
12780;SDS011;6454;43.304;24.344;2022-09-03T21:18:18;12.45;;;10.98;;
12780;SDS011;6454;43.304;24.344;2022-09-03T21:20:55;11.75;;;10.55;;
12780;SDS011;6454;43.304;24.344;2022-09-03T21:23:28;11.85;;;10.65;;
12780;SDS011;6454;43.304;24.344;2022-09-03T21:26:03;12.40;;;10.63;;
12780;SDS011;6454;43.304;24.344;2022-09-03T21:28:38;11.57;;;10.00;;
12780;SDS011;6454;43.304;24.344;2022-09-03T21:31:08;12.70;;;10.45;;
12780;SDS011;6454;43.304;24.344;2022-09-03T21:33:42;15.00;;;10.57;;
12780;SDS011;6454;43.304;24.344;2022-09-03T21:36:13;11.00;;;9.90;;
12780;SDS011;6454;43.304;24.344;2022-09-03T21:38:42;11.48;;;10.27;;
12780;SDS011;6454;43.304;24.344;2022-09-03T21:41:16;12.27;;;11.00;;
12780;SDS011;6454;43.304;24.344;2022-09-03T21:43:49;13.93;;;10.88;;
12780;SDS011;6454;43.304;24.344;2022-09-03T21:46:22;11.27;;;10.18;;
12780;SDS011;6454;43.304;24.344;2022-09-03T21:48:54;12.95;;;10.65;;
12780;SDS011;6454;43.304;24.344;2022-09-03T21:51:24;14.13;;;9.95;;
12780;SDS011;6454;43.304;24.344;2022-09-03T21:53:56;11.95;;;10.45;;
12780;SDS011;6454;43.304;24.344;2022-09-03T21:59:19;11.35;;;10.13;;
12780;SDS011;6454;43.304;24.344;2022-09-03T22:02:02;12.73;;;10.10;;
12780;SDS011;6454;43.304;24.344;2022-09-03T22:04:35;11.57;;;10.15;;
12780;SDS011;6454;43.304;24.344;2022-09-03T22:07:05;12.70;;;10.70;;
12780;SDS011;6454;43.304;24.344;2022-09-03T22:09:39;13.00;;;10.82;;
12780;SDS011;6454;43.304;24.344;2022-09-03T22:12:13;11.35;;;10.15;;
12780;SDS011;6454;43.304;24.344;2022-09-03T22:14:46;11.48;;;10.25;;
12780;SDS011;6454;43.304;24.344;2022-09-03T22:17:16;11.63;;;10.43;;
12780;SDS011;6454;43.304;24.344;2022-09-03T22:19:49;11.27;;;9.85;;
12780;SDS011;6454;43.304;24.344;2022-09-03T22:22:34;11.48;;;9.48;;
12780;SDS011;6454;43.304;24.344;2022-09-03T22:25:10;13.13;;;10.35;;
12780;SDS011;6454;43.304;24.344;2022-09-03T22:27:42;12.30;;;10.20;;
12780;SDS011;6454;43.304;24.344;2022-09-03T22:33:05;11.07;;;9.93;;
12780;SDS011;6454;43.304;24.344;2022-09-03T22:38:43;13.13;;;10.85;;
12780;SDS011;6454;43.304;24.344;2022-09-03T22:41:35;13.40;;;9.93;;
12780;SDS011;6454;43.304;24.344;2022-09-03T22:44:26;10.98;;;9.60;;
12780;SDS011;6454;43.304;24.344;2022-09-03T22:47:04;11.75;;;10.57;;
12780;SDS011;6454;43.304;24.344;2022-09-03T22:49:41;11.80;;;9.68;;
12780;SDS011;6454;43.304;24.344;2022-09-03T22:52:22;10.88;;;9.77;;
12780;SDS011;6454;43.304;24.344;2022-09-03T22:55:01;10.68;;;9.60;;
12780;SDS011;6454;43.304;24.344;2022-09-03T22:57:45;10.70;;;9.52;;
12780;SDS011;6454;43.304;24.344;2022-09-03T23:00:18;11.20;;;9.82;;
12780;SDS011;6454;43.304;24.344;2022-09-03T23:02:47;10.88;;;9.40;;
12780;SDS011;6454;43.304;24.344;2022-09-03T23:05:22;10.75;;;9.60;;
12780;SDS011;6454;43.304;24.344;2022-09-03T23:08:00;11.02;;;9.15;;
12780;SDS011;6454;43.304;24.344;2022-09-03T23:10:32;12.10;;;9.63;;
12780;SDS011;6454;43.304;24.344;2022-09-03T23:13:02;12.73;;;9.45;;
12780;SDS011;6454;43.304;24.344;2022-09-03T23:15:37;12.55;;;9.20;;
12780;SDS011;6454;43.304;24.344;2022-09-03T23:18:07;11.35;;;8.68;;
12780;SDS011;6454;43.304;24.344;2022-09-03T23:20:39;11.25;;;9.65;;
12780;SDS011;6454;43.304;24.344;2022-09-03T23:23:14;10.27;;;9.18;;
12780;SDS011;6454;43.304;24.344;2022-09-03T23:25:45;10.60;;;9.15;;
12780;SDS011;6454;43.304;24.344;2022-09-03T23:28:20;11.38;;;8.75;;
12780;SDS011;6454;43.304;24.344;2022-09-03T23:30:53;14.38;;;9.35;;
12780;SDS011;6454;43.304;24.344;2022-09-03T23:33:28;10.15;;;9.15;;
12780;SDS011;6454;43.304;24.344;2022-09-03T23:35:57;12.90;;;9.07;;
12780;SDS011;6454;43.304;24.344;2022-09-03T23:38:35;11.55;;;9.85;;
12780;SDS011;6454;43.304;24.344;2022-09-03T23:41:26;11.50;;;9.82;;
12780;SDS011;6454;43.304;24.344;2022-09-03T23:44:06;14.35;;;11.63;;
12780;SDS011;6454;43.304;24.344;2022-09-03T23:46:52;11.63;;;10.45;;
12780;SDS011;6454;43.304;24.344;2022-09-03T23:49:29;12.18;;;10.23;;
12780;SDS011;6454;43.304;24.344;2022-09-03T23:52:10;13.10;;;10.77;;
12780;SDS011;6454;43.304;24.344;2022-09-03T23:54:57;12.82;;;10.38;;
12780;SDS011;6454;43.304;24.344;2022-09-03T23:57:32;11.45;;;10.25;;
